Flight Track Log - Related Links

Times and Time Zones

All times are in EDT time to prevent confusion due to time zone crossing. See the UAL4553 flight status page for this flight to view local times or setup timezone preferences in your user account.

Time Position Orientation Groundspeed Altitude Reporting Facility
EDT Latitude Longitude Course Direction KTS MPH feet Rate Location/Type
Wed 01:42:34 PM 35.8686 -78.8114 225° Southwest 170 196 1,000  Level Washington Center
Wed 01:43:23 PM 35.8383 -78.8486 225° Southwest 182 209 2,600 2,147 Climbing Washington Center
Wed 01:44:23 PM 35.8200 -78.9119 250° West 222 255 4,900 2,025 Climbing Washington Center
Wed 01:46:03 PM 35.8269 -79.0403 274° West 259 298 8,000 1,988 Climbing Washington Center
Wed 01:47:03 PM 35.8303 -79.1353 273° West 279 321 10,200 1,748 Climbing Washington Center
Wed 01:49:29 PM 35.8269 -79.4081 269° West 329 379 14,000 1,602 Climbing Atlanta Center
Wed 01:50:29 PM 35.8167 -79.5239 264° West 342 394 15,700 1,800 Climbing Atlanta Center
Wed 01:51:29 PM 35.7961 -79.6481 258° West 342 394 17,600 1,600 Climbing Atlanta Center
Wed 01:52:29 PM 35.7792 -79.7539 259° West 342 394 18,900 1,400 Climbing Atlanta Center
Wed 01:53:29 PM 35.7581 -79.8700 257° West 347 399 20,400 1,400 Climbing Atlanta Center
Wed 01:54:29 PM 35.7369 -79.9889 258° West 347 399 21,700 1,300 Climbing Atlanta Center
Wed 01:55:29 PM 35.7158 -80.1075 258° West 355 409 23,000 1,450 Climbing Atlanta Center
Wed 01:56:29 PM 35.6928 -80.2367 258° West 355 409 24,600 1,500 Climbing Atlanta Center
Wed 01:57:29 PM 35.6506 -80.3561 247° West 365 420 26,000 1,350 Climbing Atlanta Center
Wed 01:58:29 PM 35.6078 -80.4653 244° Southwest 365 420 27,300 1,350 Climbing Atlanta Center
Wed 01:59:29 PM 35.5672 -80.5742 245° Southwest 365 420 28,700 1,400 Climbing Atlanta Center
Wed 02:00:29 PM 35.5242 -80.6833 244° Southwest 356 410 30,100 1,300 Climbing Atlanta Center
Wed 02:01:29 PM 35.4789 -80.7769 239° Southwest 356 410 31,300 1,250 Climbing Atlanta Center
Wed 02:02:29 PM 35.4228 -80.8708 234° Southwest 350 403 32,600 1,350 Climbing Atlanta Center
Wed 02:03:29 PM 35.3625 -80.9597 230° Southwest 350 403 34,000 1,350 Climbing Atlanta Center
Wed 02:04:29 PM 35.3103 -81.0458 233° Southwest 344 396 35,300 1,000 Climbing Atlanta Center
Wed 02:05:29 PM 35.2542 -81.1394 234° Southwest 326 375 36,000 350 Climbing Atlanta Center
Wed 02:06:29 PM 35.2358 -81.2417 258° West 303 349 36,000  Level Atlanta Center
Wed 02:07:29 PM 35.2300 -81.3536 266° West 316 364 36,000  Level Atlanta Center
Wed 02:08:29 PM 35.2261 -81.4708 268° West 344 396 36,000  Level Atlanta Center
Wed 02:09:29 PM 35.2161 -81.5956 264° West 366 421 36,000  Level Atlanta Center
Wed 02:10:29 PM 35.2103 -81.7231 267° West 372 428 36,000  Level Atlanta Center
Wed 02:11:29 PM 35.2044 -81.8528 267° West 380 437 36,000  Level Atlanta Center
Wed 02:12:29 PM 35.1981 -81.9725 266° West 387 445 36,000  Level Atlanta Center
Wed 02:13:29 PM 35.1897 -82.1022 266° West 387 445 36,000  Level Atlanta Center
Wed 02:14:29 PM 35.1833 -82.2369 267° West 387 445 36,000  Level Atlanta Center
Wed 02:15:29 PM 35.1728 -82.3769 265° West 382 440 36,000  Level Atlanta Center
Wed 02:16:29 PM 35.1642 -82.5042 265° West 382 440 36,000  Level Atlanta Center
Wed 02:17:29 PM 35.1550 -82.6211 265° West 387 445 36,000  Level Atlanta Center
Wed 02:18:29 PM 35.1481 -82.7483 266° West 387 445 36,000  Level Atlanta Center
Wed 02:19:29 PM 35.1389 -82.8781 265° West 387 445 36,000  Level Atlanta Center
Wed 02:20:29 PM 35.1297 -83.0053 265° West 387 445 36,000  Level Atlanta Center
Wed 02:21:29 PM 35.1203 -83.1322 265° West 387 445 36,000  Level Atlanta Center
Wed 02:22:29 PM 35.1108 -83.2644 265° West 387 445 36,000  Level Atlanta Center
Wed 02:23:29 PM 35.1031 -83.3914 266° West 387 445 36,000  Level Atlanta Center
Wed 02:24:29 PM 35.0933 -83.5261 265° West 387 445 36,000  Level Atlanta Center
Wed 02:25:29 PM 35.0814 -83.6581 264° West 393 452 36,000  Level Atlanta Center
Wed 02:26:29 PM 35.0711 -83.7900 265° West 393 452 36,000  Level Atlanta Center
Wed 02:27:29 PM 35.0611 -83.9219 265° West 393 452 36,000  Level Atlanta Center
Wed 02:28:29 PM 35.0506 -84.0564 265° West 393 452 36,000  Level Atlanta Center
Wed 02:29:29 PM 35.0400 -84.1911 265° West 393 452 36,000  Level Atlanta Center
Wed 02:30:29 PM 35.0294 -84.3203 264° West 393 452 36,000  Level Atlanta Center
Wed 02:31:29 PM 35.0208 -84.4547 266° West 393 452 36,000  Level Atlanta Center
Wed 02:32:29 PM 35.0097 -84.5867 264° West 398 458 36,000  Level Atlanta Center
Wed 02:33:29 PM 34.9967 -84.7183 263° West 398 458 36,000  Level Atlanta Center
Wed 02:34:29 PM 34.9875 -84.8525 265° West 398 458 36,000  Level Atlanta Center
Wed 02:35:29 PM 34.9761 -84.9842 264° West 398 458 36,000  Level Atlanta Center
Wed 02:36:29 PM 34.9500 -85.1106 256° West 403 464 36,000  Level Atlanta Center
Wed 02:37:29 PM 34.9092 -85.2394 249° West 398 458 36,000  Level Atlanta Center
Wed 02:38:29 PM 34.8703 -85.3628 249° West 403 464 36,000  Level Atlanta Center
Wed 02:39:29 PM 34.8169 -85.4808 241° Southwest 403 464 36,000  Level Atlanta Center
Wed 02:40:29 PM 34.7653 -85.5964 241° Southwest 403 464 36,000  Level Atlanta Center
Wed 02:41:29 PM 34.7117 -85.7117 241° Southwest 398 458 36,000  Level Atlanta Center
Wed 02:42:29 PM 34.6558 -85.8317 241° Southwest 392 451 36,000  Level Atlanta Center
Wed 02:43:29 PM 34.6039 -85.9442 241° Southwest 387 445 36,000  Level Atlanta Center
Wed 02:44:29 PM 34.5500 -86.0589 240° Southwest 387 445 36,000  Level Atlanta Center
Wed 02:45:29 PM 34.4958 -86.1736 240° Southwest 392 451 36,000  Level Atlanta Center
Wed 02:46:29 PM 34.4417 -86.2856 240° Southwest 392 451 36,000  Level Atlanta Center
Wed 02:47:29 PM 34.3872 -86.4025 241° Southwest 392 451 36,000  Level Atlanta Center
Wed 02:48:29 PM 34.3328 -86.5142 239° Southwest 392 451 36,000  Level Atlanta Center
Wed 02:49:29 PM 34.2783 -86.6281 240° Southwest 392 451 36,000  Level Atlanta Center
Wed 02:50:29 PM 34.2239 -86.7394 239° Southwest 392 451 36,000  Level Atlanta Center
Wed 02:51:29 PM 34.1692 -86.8533 240° Southwest 397 457 36,000  Level Atlanta Center
Wed 02:52:29 PM 34.1142 -86.9694 240° Southwest 397 457 36,000  Level Atlanta Center
Wed 02:54:05 PM 34.0331 -87.1439 241° Southwest 400 460 36,000  Level Memphis Center
Wed 02:55:05 PM 33.9775 -87.2611 240° Southwest 393 452 36,000  Level Memphis Center
Wed 02:56:05 PM 33.9178 -87.3761 238° Southwest 385 443 36,000  Level Memphis Center
Wed 02:57:05 PM 33.8703 -87.4828 242° Southwest 380 437 36,000  Level Memphis Center
Wed 02:58:05 PM 33.8100 -87.5972 238° Southwest 391 450 36,000  Level Memphis Center
Wed 02:59:05 PM 33.7522 -87.7139 239° Southwest 450 518 36,000  Level Memphis Center
Wed 03:00:05 PM 33.6961 -87.8281 239° Southwest 426 490 36,000  Level Memphis Center
Wed 03:01:05 PM 33.6419 -87.9419 240° Southwest 410 472 36,000  Level Memphis Center
Wed 03:02:05 PM 33.5858 -88.0556 239° Southwest 405 466 36,000  Level Memphis Center
Wed 03:03:05 PM 33.5272 -88.1694 238° Southwest 405 466 36,000  Level Memphis Center
Wed 03:04:05 PM 33.4769 -88.2828 242° Southwest 405 466 36,000  Level Memphis Center
Wed 03:05:05 PM 33.4203 -88.3961 239° Southwest 405 466 36,000  Level Memphis Center
Wed 03:06:05 PM 33.3617 -88.5117 239° Southwest 410 472 36,000  Level Memphis Center
Wed 03:07:05 PM 33.3006 -88.6247 237° Southwest 410 472 36,000  Level Memphis Center
Wed 03:08:05 PM 33.2458 -88.7403 241° Southwest 410 472 36,000  Level Memphis Center
Wed 03:09:05 PM 33.1867 -88.8556 239° Southwest 410 472 36,000  Level Memphis Center
Wed 03:10:05 PM 33.1317 -88.9606 238° Southwest 410 472 36,000  Level Memphis Center
Wed 03:11:05 PM 33.0744 -89.0756 239° Southwest 410 472 36,000  Level Memphis Center
Wed 03:12:05 PM 33.0150 -89.1928 239° Southwest 410 472 36,000  Level Memphis Center
Wed 03:13:05 PM 32.9556 -89.3075 238° Southwest 410 472 36,000  Level Memphis Center
Wed 03:14:05 PM 32.8939 -89.4244 238° Southwest 410 472 36,000  Level Memphis Center
Wed 03:15:05 PM 32.8319 -89.5414 238° Southwest 410 472 36,000  Level Memphis Center
Wed 03:16:05 PM 32.7722 -89.6581 239° Southwest 410 472 36,000  Level Memphis Center
Wed 03:17:05 PM 32.7039 -89.7844 237° Southwest 410 472 36,000  Level Memphis Center
Wed 03:18:05 PM 32.6461 -89.9008 240° Southwest 410 472 36,000  Level Memphis Center
Wed 03:19:05 PM 32.5858 -90.0194 239° Southwest 410 472 36,000  Level Memphis Center
Wed 03:20:05 PM 32.5236 -90.1356 238° Southwest 410 472 36,000  Level Memphis Center
Wed 03:21:05 PM 32.4631 -90.2514 238° Southwest 410 472 36,000  Level Memphis Center
Wed 03:22:05 PM 32.4025 -90.3697 239° Southwest 415 478 36,000  Level Memphis Center
Wed 03:23:48 PM 32.3019 -90.5611 238° Southwest 421 484 36,000  Level Houston Center
Wed 03:24:50 PM 32.2425 -90.6764 239° Southwest 415 478 36,000  Level Houston Center
Wed 03:25:52 PM 32.1769 -90.7989 238° Southwest 421 484 36,000  Level Houston Center
Wed 03:26:54 PM 32.1167 -90.9131 238° Southwest 414 476 36,000  Level Houston Center
Wed 03:27:56 PM 32.0569 -91.0289 239° Southwest 414 476 36,000  Level Houston Center
Wed 03:28:59 PM 31.9939 -91.1444 237° Southwest 420 483 36,000  Level Houston Center
Wed 03:30:01 PM 31.9208 -91.2819 238° Southwest 414 476 36,000  Level Houston Center
Wed 03:31:03 PM 31.8597 -91.3967 238° Southwest 415 478 36,000  Level Houston Center
Wed 03:32:05 PM 31.7978 -91.5117 238° Southwest 415 478 36,000  Level Houston Center
Wed 03:33:07 PM 31.7350 -91.6272 237° Southwest 419 482 36,000  Level Houston Center
Wed 03:34:09 PM 31.6731 -91.7417 238° Southwest 417 480 36,000  Level Houston Center
Wed 03:35:11 PM 31.5986 -91.8794 238° Southwest 417 480 36,000  Level Houston Center
Wed 03:36:14 PM 31.5375 -91.9928 238° Southwest 413 475 36,000  Level Houston Center
Wed 03:37:16 PM 31.4761 -92.1042 237° Southwest 409 471 36,000  Level Houston Center
Wed 03:38:18 PM 31.4136 -92.2161 237° Southwest 410 472 36,000  Level Houston Center
Wed 03:39:20 PM 31.3525 -92.3261 237° Southwest 404 465 36,000  Level Houston Center
Wed 03:40:22 PM 31.2881 -92.4456 238° Southwest 403 464 36,000  Level Houston Center
Wed 03:41:24 PM 31.2306 -92.5564 239° Southwest 400 460 36,000  Level Houston Center
Wed 03:42:27 PM 31.1619 -92.6683 234° Southwest 413 475 36,000  Level Houston Center
Wed 03:43:29 PM 31.0892 -92.8000 237° Southwest 405 466 36,000  Level Houston Center
Wed 03:44:31 PM 31.0283 -92.9092 237° Southwest 402 463 36,000  Level Houston Center
Wed 03:45:33 PM 30.9669 -93.0181 237° Southwest 403 464 36,000 -339 Level Houston Center
Wed 03:46:35 PM 30.9058 -93.1272 237° Southwest 402 463 35,300 -871 Descending Houston Center
Wed 03:47:37 PM 30.8428 -93.2361 236° Southwest 405 466 34,200 -1,548 Descending Houston Center
Wed 03:48:39 PM 30.7797 -93.3483 237° Southwest 413 475 32,100 -2,661 Descending Houston Center
Wed 03:49:41 PM 30.7044 -93.4806 237° Southwest 411 473 28,700 -3,024 Descending Houston Center
Wed 03:50:44 PM 30.6392 -93.5944 236° Southwest 414 476 25,800 -2,592 Descending Houston Center
Wed 03:51:46 PM 30.5761 -93.7061 237° Southwest 413 475 23,300 -2,129 Descending Houston Center
Wed 03:52:48 PM 30.5158 -93.8094 236° Southwest 390 449 21,400 -1,887 Descending Houston Center
Wed 03:53:50 PM 30.4558 -93.9125 236° Southwest 384 442 19,400 -1,887 Descending Houston Center
Wed 03:54:52 PM 30.3983 -94.0139 237° Southwest 376 433 17,500 -1,887 Descending Houston Center
Wed 03:55:54 PM 30.3408 -94.1150 237° Southwest 375 432 15,500 -2,151 Descending Houston Center
Wed 03:56:38 PM 30.2911 -94.1997 236° Southwest 371 427 13,700 -2,129 Descending Houston Center
Wed 03:56:56 PM 30.2717 -94.2342 237° Southwest 369 425 13,300 -1,548 Descending Houston Center
Wed 03:57:40 PM 30.2319 -94.3019 236° Southwest 366 421 12,100 -1,258 Descending Houston Center
Wed 03:57:58 PM 30.2144 -94.3319 236° Southwest 365 420 12,000 -98 Descending Houston Center
Wed 03:58:41 PM 30.1883 -94.4117 249° West 368 423 12,000  Level Houston Center
Wed 03:59:01 PM 30.1836 -94.4428 260° West 367 422 12,000 -97 Level Houston Center
Wed 03:59:43 PM 30.1667 -94.5356 258° West 377 434 11,900  Descending Houston Center
Wed 04:00:03 PM 30.1628 -94.5647 261° West 380 437 12,000  Climbing Houston Center
Wed 04:00:43 PM 30.1469 -94.6564 259° West 383 441 11,900 -97 Descending Houston Center
Wed 04:01:05 PM 30.1433 -94.6850 262° West 383 441 11,900 -716 Level Houston Center
Wed 04:01:50 PM 30.1253 -94.7800 258° West 362 417 11,100 -871 Descending Houston Center
Wed 04:02:07 PM 30.1231 -94.8000 263° West 373 429 11,000 -1,091 Descending Houston Center
Wed 04:02:45 PM 30.1092 -94.8764 258° West 321 369 10,100 -968 Descending Houston Center
Wed 04:03:09 PM 30.1069 -94.8989 263° West 326 375 10,000 -984 Descending Houston Center
Wed 04:03:46 PM 30.1053 -94.9686 268° West 275 316 9,100 -1,161 Descending Houston Center
Wed 04:04:11 PM 30.1056 -95.0061 270° West 285 328 8,800 -968 Descending Houston Center
Wed 04:04:48 PM 30.1056 -95.0606 270° West 265 305 8,100 -968 Descending Houston Center
Wed 04:05:13 PM 30.1067 -95.0911 272° West 270 311 7,800 -984 Descending Houston Center
Wed 04:05:49 PM 30.1056 -95.1497 269° West 272 313 7,100 -871 Descending Houston Center
Wed 04:06:15 PM 30.1061 -95.1789 271° West 273 314 6,900 -984 Descending Houston Center
Wed 04:06:50 PM 30.1056 -95.2392 269° West 280 322 6,100 -762 Descending Houston Center
Wed 04:07:18 PM 30.1078 -95.2681 275° West 278 320 6,100 -393 Level Houston Center
Wed 04:07:51 PM 30.1072 -95.3261 269° West 277 319 5,700 -581 Descending Houston Center
Wed 04:08:20 PM 30.1061 -95.3556 268° West 276 318 5,500 -984 Descending Houston Center
Wed 04:08:52 PM 30.1072 -95.4200 271° West 276 318 4,700 -1,258 Descending Houston Center
Wed 04:09:22 PM 30.1067 -95.4611 269° West 275 316 4,200 -984 Descending Houston Center
Wed 04:09:53 PM 30.1067 -95.5072 270° West 252 290 3,700 -968 Descending Houston Center
Wed 04:10:24 PM 30.0978 -95.5358 250° West 251 289 3,200 -677 Descending Houston Center
Wed 04:10:55 PM 30.0681 -95.5431 192° South 194 223 3,000 -581 Descending Houston Center
Wed 04:11:26 PM 30.0425 -95.5467 187° South 222 255 2,600 -1,000 Descending Houston Center
Wed 04:11:55 PM 30.0111 -95.5403 170° South 191 220 2,000 -581 Descending Houston Center
Wed 04:12:28 PM 29.9958 -95.5256 140° Southeast 206 237 2,000  Level Houston Center
Wed 04:12:57 PM 29.9917 -95.4872 97° East 199 229 2,000 -97 Level Houston Center
Wed 04:13:30 PM 29.9933 -95.4633 85° East 199 229 1,900 -182 Descending Houston Center

Login

Don't have an account? Register now (free) for customized features, flight alerts, and more!